sensor_id;sensor_type;location;lat;lon;timestamp;P1;durP1;ratioP1;P2;durP2;ratioP2
7843;SDS011;3967;48.702;9.326;2022-08-14T00:01:55;2.37;;;2.00;;
7843;SDS011;3967;48.702;9.326;2022-08-14T00:04:22;4.10;;;2.40;;
7843;SDS011;3967;48.702;9.326;2022-08-14T00:07:06;4.30;;;2.40;;
7843;SDS011;3967;48.702;9.326;2022-08-14T00:09:36;3.80;;;2.40;;
7843;SDS011;3967;48.702;9.326;2022-08-14T00:12:23;3.73;;;2.27;;
7843;SDS011;3967;48.702;9.326;2022-08-14T00:15:08;3.07;;;2.27;;
7843;SDS011;3967;48.702;9.326;2022-08-14T00:17:47;2.60;;;2.40;;
7843;SDS011;3967;48.702;9.326;2022-08-14T00:20:20;4.07;;;2.30;;
7843;SDS011;3967;48.702;9.326;2022-08-14T00:22:55;3.47;;;2.17;;
7843;SDS011;3967;48.702;9.326;2022-08-14T00:25:33;2.53;;;2.33;;
7843;SDS011;3967;48.702;9.326;2022-08-14T00:28:09;2.83;;;2.20;;
7843;SDS011;3967;48.702;9.326;2022-08-14T00:30:43;2.37;;;2.17;;
7843;SDS011;3967;48.702;9.326;2022-08-14T00:33:11;2.40;;;2.20;;
7843;SDS011;3967;48.702;9.326;2022-08-14T00:35:41;3.13;;;2.03;;
7843;SDS011;3967;48.702;9.326;2022-08-14T00:38:29;3.57;;;2.77;;
7843;SDS011;3967;48.702;9.326;2022-08-14T00:40:59;3.17;;;1.80;;
7843;SDS011;3967;48.702;9.326;2022-08-14T00:43:26;4.80;;;1.93;;
7843;SDS011;3967;48.702;9.326;2022-08-14T00:46:00;2.17;;;2.07;;
7843;SDS011;3967;48.702;9.326;2022-08-14T00:48:33;2.33;;;2.13;;
7843;SDS011;3967;48.702;9.326;2022-08-14T00:51:04;2.50;;;2.20;;
7843;SDS011;3967;48.702;9.326;2022-08-14T00:53:34;2.70;;;2.50;;
7843;SDS011;3967;48.702;9.326;2022-08-14T00:56:03;2.03;;;1.83;;
7843;SDS011;3967;48.702;9.326;2022-08-14T00:58:34;2.27;;;2.07;;
7843;SDS011;3967;48.702;9.326;2022-08-14T01:01:10;2.57;;;2.37;;
7843;SDS011;3967;48.702;9.326;2022-08-14T01:03:42;2.70;;;1.97;;
7843;SDS011;3967;48.702;9.326;2022-08-14T01:06:10;2.13;;;1.93;;
7843;SDS011;3967;48.702;9.326;2022-08-14T01:08:40;2.00;;;1.80;;
7843;SDS011;3967;48.702;9.326;2022-08-14T01:11:24;2.37;;;2.17;;
7843;SDS011;3967;48.702;9.326;2022-08-14T01:14:00;2.70;;;1.70;;
7843;SDS011;3967;48.702;9.326;2022-08-14T01:16:48;1.90;;;1.80;;
7843;SDS011;3967;48.702;9.326;2022-08-14T01:19:18;3.13;;;1.80;;
7843;SDS011;3967;48.702;9.326;2022-08-14T01:22:06;3.03;;;2.07;;
7843;SDS011;3967;48.702;9.326;2022-08-14T01:24:37;2.10;;;2.00;;
7843;SDS011;3967;48.702;9.326;2022-08-14T01:27:07;2.23;;;1.93;;
7843;SDS011;3967;48.702;9.326;2022-08-14T01:29:40;3.40;;;1.80;;
7843;SDS011;3967;48.702;9.326;2022-08-14T01:32:27;2.10;;;2.00;;
7843;SDS011;3967;48.702;9.326;2022-08-14T01:34:55;2.20;;;2.00;;
7843;SDS011;3967;48.702;9.326;2022-08-14T01:37:43;2.23;;;2.07;;
7843;SDS011;3967;48.702;9.326;2022-08-14T01:40:25;2.30;;;1.90;;
7843;SDS011;3967;48.702;9.326;2022-08-14T01:43:02;2.00;;;1.90;;
7843;SDS011;3967;48.702;9.326;2022-08-14T01:45:32;2.13;;;1.93;;
7843;SDS011;3967;48.702;9.326;2022-08-14T01:48:06;2.00;;;1.80;;
7843;SDS011;3967;48.702;9.326;2022-08-14T01:50:41;2.13;;;2.00;;
7843;SDS011;3967;48.702;9.326;2022-08-14T01:53:10;2.10;;;1.90;;
7843;SDS011;3967;48.702;9.326;2022-08-14T01:55:37;1.87;;;1.77;;
7843;SDS011;3967;48.702;9.326;2022-08-14T01:58:05;2.43;;;1.90;;
7843;SDS011;3967;48.702;9.326;2022-08-14T02:00:49;2.70;;;2.40;;
7843;SDS011;3967;48.702;9.326;2022-08-14T02:03:25;2.40;;;1.93;;
7843;SDS011;3967;48.702;9.326;2022-08-14T02:05:57;2.30;;;2.20;;
7843;SDS011;3967;48.702;9.326;2022-08-14T02:08:25;2.63;;;2.43;;
7843;SDS011;3967;48.702;9.326;2022-08-14T02:11:01;2.40;;;2.30;;
7843;SDS011;3967;48.702;9.326;2022-08-14T02:13:59;2.63;;;2.20;;
7843;SDS011;3967;48.702;9.326;2022-08-14T02:16:43;3.53;;;2.30;;
7843;SDS011;3967;48.702;9.326;2022-08-14T02:19:15;2.50;;;2.10;;
7843;SDS011;3967;48.702;9.326;2022-08-14T02:21:46;2.67;;;2.17;;
7843;SDS011;3967;48.702;9.326;2022-08-14T02:24:16;2.10;;;2.00;;
7843;SDS011;3967;48.702;9.326;2022-08-14T02:27:06;2.07;;;1.97;;
7843;SDS011;3967;48.702;9.326;2022-08-14T02:29:53;2.10;;;2.00;;
7843;SDS011;3967;48.702;9.326;2022-08-14T02:32:27;3.00;;;1.97;;
7843;SDS011;3967;48.702;9.326;2022-08-14T02:35:06;2.10;;;2.00;;
7843;SDS011;3967;48.702;9.326;2022-08-14T02:37:38;5.57;;;2.47;;
7843;SDS011;3967;48.702;9.326;2022-08-14T02:40:14;2.20;;;2.00;;
7843;SDS011;3967;48.702;9.326;2022-08-14T02:42:43;2.70;;;2.50;;
7843;SDS011;3967;48.702;9.326;2022-08-14T02:45:22;3.60;;;2.70;;
7843;SDS011;3967;48.702;9.326;2022-08-14T02:48:02;3.50;;;2.50;;
7843;SDS011;3967;48.702;9.326;2022-08-14T02:50:35;2.47;;;2.27;;
7843;SDS011;3967;48.702;9.326;2022-08-14T02:53:16;3.03;;;2.23;;
7843;SDS011;3967;48.702;9.326;2022-08-14T02:55:43;2.90;;;2.57;;
7843;SDS011;3967;48.702;9.326;2022-08-14T02:58:11;4.33;;;2.40;;
7843;SDS011;3967;48.702;9.326;2022-08-14T03:00:54;2.50;;;2.30;;
7843;SDS011;3967;48.702;9.326;2022-08-14T03:03:22;2.40;;;2.23;;
7843;SDS011;3967;48.702;9.326;2022-08-14T03:05:51;2.50;;;2.30;;
7843;SDS011;3967;48.702;9.326;2022-08-14T03:08:20;2.47;;;2.27;;
7843;SDS011;3967;48.702;9.326;2022-08-14T03:10:47;2.30;;;2.20;;
7843;SDS011;3967;48.702;9.326;2022-08-14T03:13:16;2.30;;;2.10;;
7843;SDS011;3967;48.702;9.326;2022-08-14T03:15:47;4.07;;;2.17;;
7843;SDS011;3967;48.702;9.326;2022-08-14T03:18:23;2.93;;;2.40;;
7843;SDS011;3967;48.702;9.326;2022-08-14T03:20:58;4.07;;;2.50;;
7843;SDS011;3967;48.702;9.326;2022-08-14T03:23:30;2.50;;;2.30;;
7843;SDS011;3967;48.702;9.326;2022-08-14T03:26:04;4.37;;;2.30;;
7843;SDS011;3967;48.702;9.326;2022-08-14T03:28:44;3.47;;;2.30;;
7843;SDS011;3967;48.702;9.326;2022-08-14T03:31:16;3.33;;;2.27;;
7843;SDS011;3967;48.702;9.326;2022-08-14T03:33:51;2.43;;;2.23;;
7843;SDS011;3967;48.702;9.326;2022-08-14T03:36:19;2.50;;;2.30;;
7843;SDS011;3967;48.702;9.326;2022-08-14T03:39:07;3.00;;;2.80;;
7843;SDS011;3967;48.702;9.326;2022-08-14T03:41:52;4.37;;;2.73;;
7843;SDS011;3967;48.702;9.326;2022-08-14T03:44:21;2.90;;;2.70;;
7843;SDS011;3967;48.702;9.326;2022-08-14T03:47:08;3.93;;;2.63;;
7843;SDS011;3967;48.702;9.326;2022-08-14T03:49:37;4.40;;;2.47;;
7843;SDS011;3967;48.702;9.326;2022-08-14T03:52:08;4.23;;;2.30;;
7843;SDS011;3967;48.702;9.326;2022-08-14T03:54:56;2.33;;;2.23;;
7843;SDS011;3967;48.702;9.326;2022-08-14T03:57:24;2.70;;;2.50;;
7843;SDS011;3967;48.702;9.326;2022-08-14T03:59:57;2.43;;;2.23;;
7843;SDS011;3967;48.702;9.326;2022-08-14T04:02:27;2.87;;;2.60;;
7843;SDS011;3967;48.702;9.326;2022-08-14T04:04:58;5.13;;;2.63;;
7843;SDS011;3967;48.702;9.326;2022-08-14T04:07:36;2.97;;;2.77;;
7843;SDS011;3967;48.702;9.326;2022-08-14T04:10:15;4.07;;;2.90;;
7843;SDS011;3967;48.702;9.326;2022-08-14T04:12:51;3.30;;;2.43;;
7843;SDS011;3967;48.702;9.326;2022-08-14T04:15:19;2.53;;;2.40;;
7843;SDS011;3967;48.702;9.326;2022-08-14T04:17:48;2.67;;;2.47;;
7843;SDS011;3967;48.702;9.326;2022-08-14T04:20:15;2.93;;;2.73;;
7843;SDS011;3967;48.702;9.326;2022-08-14T04:22:51;3.43;;;3.23;;
7843;SDS011;3967;48.702;9.326;2022-08-14T04:25:20;3.00;;;2.70;;
7843;SDS011;3967;48.702;9.326;2022-08-14T04:27:47;3.57;;;2.43;;
7843;SDS011;3967;48.702;9.326;2022-08-14T04:30:28;4.53;;;3.17;;
7843;SDS011;3967;48.702;9.326;2022-08-14T04:32:58;3.00;;;2.80;;
7843;SDS011;3967;48.702;9.326;2022-08-14T04:35:36;3.30;;;2.37;;
7843;SDS011;3967;48.702;9.326;2022-08-14T04:38:22;4.03;;;2.33;;
7843;SDS011;3967;48.702;9.326;2022-08-14T04:41:07;2.47;;;2.30;;
7843;SDS011;3967;48.702;9.326;2022-08-14T04:43:56;2.60;;;2.40;;
7843;SDS011;3967;48.702;9.326;2022-08-14T04:46:23;3.00;;;2.80;;
7843;SDS011;3967;48.702;9.326;2022-08-14T04:49:10;3.27;;;2.97;;
7843;SDS011;3967;48.702;9.326;2022-08-14T04:51:40;2.80;;;2.60;;
7843;SDS011;3967;48.702;9.326;2022-08-14T04:54:21;3.03;;;2.83;;
7843;SDS011;3967;48.702;9.326;2022-08-14T04:56:52;3.00;;;2.80;;
7843;SDS011;3967;48.702;9.326;2022-08-14T04:59:21;3.00;;;2.80;;
7843;SDS011;3967;48.702;9.326;2022-08-14T05:01:48;2.90;;;2.70;;
7843;SDS011;3967;48.702;9.326;2022-08-14T05:04:21;3.30;;;3.00;;
7843;SDS011;3967;48.702;9.326;2022-08-14T05:06:50;3.70;;;3.33;;
7843;SDS011;3967;48.702;9.326;2022-08-14T05:09:20;3.67;;;3.20;;
7843;SDS011;3967;48.702;9.326;2022-08-14T05:11:48;2.97;;;2.73;;
7843;SDS011;3967;48.702;9.326;2022-08-14T05:14:17;4.60;;;3.30;;
7843;SDS011;3967;48.702;9.326;2022-08-14T05:17:07;4.20;;;2.97;;
7843;SDS011;3967;48.702;9.326;2022-08-14T05:19:36;3.70;;;3.40;;
7843;SDS011;3967;48.702;9.326;2022-08-14T05:22:23;4.47;;;3.23;;
7843;SDS011;3967;48.702;9.326;2022-08-14T05:24:52;3.83;;;3.27;;
7843;SDS011;3967;48.702;9.326;2022-08-14T05:27:19;2.73;;;2.53;;
7843;SDS011;3967;48.702;9.326;2022-08-14T05:29:49;3.53;;;2.43;;
7843;SDS011;3967;48.702;9.326;2022-08-14T05:32:22;3.40;;;3.10;;
7843;SDS011;3967;48.702;9.326;2022-08-14T05:34:53;5.60;;;3.73;;
7843;SDS011;3967;48.702;9.326;2022-08-14T05:37:24;3.70;;;3.40;;
7843;SDS011;3967;48.702;9.326;2022-08-14T05:39:55;3.47;;;3.27;;
7843;SDS011;3967;48.702;9.326;2022-08-14T05:42:23;3.23;;;3.03;;
7843;SDS011;3967;48.702;9.326;2022-08-14T05:44:54;3.20;;;2.87;;
7843;SDS011;3967;48.702;9.326;2022-08-14T05:47:22;4.10;;;2.97;;
7843;SDS011;3967;48.702;9.326;2022-08-14T05:49:55;3.00;;;2.80;;
7843;SDS011;3967;48.702;9.326;2022-08-14T05:52:23;3.13;;;2.93;;
7843;SDS011;3967;48.702;9.326;2022-08-14T05:55:05;3.20;;;2.90;;
7843;SDS011;3967;48.702;9.326;2022-08-14T05:57:33;2.90;;;2.70;;
7843;SDS011;3967;48.702;9.326;2022-08-14T06:00:01;3.50;;;2.67;;
7843;SDS011;3967;48.702;9.326;2022-08-14T06:02:29;4.23;;;3.17;;
7843;SDS011;3967;48.702;9.326;2022-08-14T06:04:58;3.00;;;2.80;;
7843;SDS011;3967;48.702;9.326;2022-08-14T06:07:28;2.90;;;2.70;;
7843;SDS011;3967;48.702;9.326;2022-08-14T06:09:54;3.23;;;3.03;;
7843;SDS011;3967;48.702;9.326;2022-08-14T06:12:28;3.00;;;2.77;;
7843;SDS011;3967;48.702;9.326;2022-08-14T06:15:14;3.10;;;2.90;;
7843;SDS011;3967;48.702;9.326;2022-08-14T06:17:46;3.40;;;3.10;;
7843;SDS011;3967;48.702;9.326;2022-08-14T06:20:25;3.77;;;2.90;;
7843;SDS011;3967;48.702;9.326;2022-08-14T06:22:53;3.20;;;3.00;;
7843;SDS011;3967;48.702;9.326;2022-08-14T06:25:21;3.03;;;2.80;;
7843;SDS011;3967;48.702;9.326;2022-08-14T06:27:50;3.37;;;3.17;;
7843;SDS011;3967;48.702;9.326;2022-08-14T06:30:18;3.47;;;3.27;;
7843;SDS011;3967;48.702;9.326;2022-08-14T06:32:46;3.53;;;3.33;;
7843;SDS011;3967;48.702;9.326;2022-08-14T06:35:18;2.93;;;2.73;;
7843;SDS011;3967;48.702;9.326;2022-08-14T06:37:49;3.60;;;3.30;;
7843;SDS011;3967;48.702;9.326;2022-08-14T06:40:17;2.93;;;2.67;;
7843;SDS011;3967;48.702;9.326;2022-08-14T06:42:57;2.90;;;2.70;;
7843;SDS011;3967;48.702;9.326;2022-08-14T06:45:33;4.20;;;2.80;;
7843;SDS011;3967;48.702;9.326;2022-08-14T06:48:01;3.00;;;2.77;;
7843;SDS011;3967;48.702;9.326;2022-08-14T06:50:31;3.27;;;2.90;;
7843;SDS011;3967;48.702;9.326;2022-08-14T06:52:58;6.50;;;2.43;;
7843;SDS011;3967;48.702;9.326;2022-08-14T06:55:26;2.37;;;2.17;;
7843;SDS011;3967;48.702;9.326;2022-08-14T06:57:54;2.93;;;2.70;;
7843;SDS011;3967;48.702;9.326;2022-08-14T07:00:24;2.83;;;2.67;;
7843;SDS011;3967;48.702;9.326;2022-08-14T07:02:56;2.80;;;2.60;;
7843;SDS011;3967;48.702;9.326;2022-08-14T07:05:42;2.83;;;2.60;;
7843;SDS011;3967;48.702;9.326;2022-08-14T07:08:24;2.73;;;2.53;;
7843;SDS011;3967;48.702;9.326;2022-08-14T07:10:56;3.43;;;2.77;;
7843;SDS011;3967;48.702;9.326;2022-08-14T07:13:25;2.97;;;2.77;;
7843;SDS011;3967;48.702;9.326;2022-08-14T07:15:54;4.60;;;2.40;;
7843;SDS011;3967;48.702;9.326;2022-08-14T07:18:33;3.57;;;2.43;;
7843;SDS011;3967;48.702;9.326;2022-08-14T07:21:02;2.90;;;2.57;;
7843;SDS011;3967;48.702;9.326;2022-08-14T07:23:32;2.50;;;2.27;;
7843;SDS011;3967;48.702;9.326;2022-08-14T07:26:05;2.37;;;2.17;;
7843;SDS011;3967;48.702;9.326;2022-08-14T07:28:36;2.37;;;2.17;;
7843;SDS011;3967;48.702;9.326;2022-08-14T07:31:09;2.10;;;2.00;;
7843;SDS011;3967;48.702;9.326;2022-08-14T07:33:41;2.03;;;1.93;;
7843;SDS011;3967;48.702;9.326;2022-08-14T07:36:15;2.03;;;1.87;;
7843;SDS011;3967;48.702;9.326;2022-08-14T07:38:55;2.50;;;2.03;;
7843;SDS011;3967;48.702;9.326;2022-08-14T07:41:25;2.10;;;2.00;;
7843;SDS011;3967;48.702;9.326;2022-08-14T07:43:59;1.90;;;1.80;;
7843;SDS011;3967;48.702;9.326;2022-08-14T07:46:46;1.97;;;1.87;;
7843;SDS011;3967;48.702;9.326;2022-08-14T07:49:13;2.40;;;2.03;;
7843;SDS011;3967;48.702;9.326;2022-08-14T07:51:43;4.37;;;2.07;;
7843;SDS011;3967;48.702;9.326;2022-08-14T07:54:14;3.10;;;1.90;;
7843;SDS011;3967;48.702;9.326;2022-08-14T07:56:56;2.00;;;1.80;;
7843;SDS011;3967;48.702;9.326;2022-08-14T07:59:37;1.83;;;1.73;;
7843;SDS011;3967;48.702;9.326;2022-08-14T08:02:08;2.17;;;1.97;;
7843;SDS011;3967;48.702;9.326;2022-08-14T08:04:45;3.20;;;2.10;;
7843;SDS011;3967;48.702;9.326;2022-08-14T08:07:21;3.00;;;1.70;;
7843;SDS011;3967;48.702;9.326;2022-08-14T08:09:55;1.80;;;1.70;;
7843;SDS011;3967;48.702;9.326;2022-08-14T08:12:24;2.27;;;1.60;;
7843;SDS011;3967;48.702;9.326;2022-08-14T08:15:03;1.90;;;1.73;;
7843;SDS011;3967;48.702;9.326;2022-08-14T08:17:35;3.70;;;1.20;;
7843;SDS011;3967;48.702;9.326;2022-08-14T08:20:07;1.67;;;1.23;;
7843;SDS011;3967;48.702;9.326;2022-08-14T08:22:46;1.67;;;1.30;;
7843;SDS011;3967;48.702;9.326;2022-08-14T08:25:22;1.80;;;1.70;;
7843;SDS011;3967;48.702;9.326;2022-08-14T08:27:56;2.33;;;1.52;;
7843;SDS011;3967;48.702;9.326;2022-08-14T08:30:34;1.50;;;1.40;;
7843;SDS011;3967;48.702;9.326;2022-08-14T08:33:14;1.65;;;1.55;;
7843;SDS011;3967;48.702;9.326;2022-08-14T08:35:43;1.50;;;1.40;;
7843;SDS011;3967;48.702;9.326;2022-08-14T08:38:16;2.50;;;1.80;;
7843;SDS011;3967;48.702;9.326;2022-08-14T08:41:08;1.30;;;1.30;;
7843;SDS011;3967;48.702;9.326;2022-08-14T08:43:37;1.80;;;1.50;;
7843;SDS011;3967;48.702;9.326;2022-08-14T08:46:12;1.88;;;1.63;;
7843;SDS011;3967;48.702;9.326;2022-08-14T08:48:53;1.77;;;1.67;;
7843;SDS011;3967;48.702;9.326;2022-08-14T08:51:31;2.22;;;2.13;;
7843;SDS011;3967;48.702;9.326;2022-08-14T08:56:50;2.50;;;1.70;;
7843;SDS011;3967;48.702;9.326;2022-08-14T08:59:28;4.53;;;1.50;;
7843;SDS011;3967;48.702;9.326;2022-08-14T09:02:00;2.20;;;1.58;;
7843;SDS011;3967;48.702;9.326;2022-08-14T09:04:40;1.35;;;1.25;;
7843;SDS011;3967;48.702;9.326;2022-08-14T09:07:18;1.90;;;1.55;;
7843;SDS011;3967;48.702;9.326;2022-08-14T09:09:52;1.73;;;1.63;;
7843;SDS011;3967;48.702;9.326;2022-08-14T09:12:25;3.13;;;1.80;;
7843;SDS011;3967;48.702;9.326;2022-08-14T09:14:59;1.60;;;1.50;;
7843;SDS011;3967;48.702;9.326;2022-08-14T09:17:27;3.42;;;1.60;;
7843;SDS011;3967;48.702;9.326;2022-08-14T09:19:54;2.65;;;1.65;;
7843;SDS011;3967;48.702;9.326;2022-08-14T09:22:27;1.83;;;1.45;;
7843;SDS011;3967;48.702;9.326;2022-08-14T09:25:13;1.88;;;1.77;;
7843;SDS011;3967;48.702;9.326;2022-08-14T09:28:03;1.80;;;1.70;;
7843;SDS011;3967;48.702;9.326;2022-08-14T09:30:31;1.83;;;1.50;;
7843;SDS011;3967;48.702;9.326;2022-08-14T09:42:02;3.28;;;1.67;;
7843;SDS011;3967;48.702;9.326;2022-08-14T09:52:52;4.25;;;1.45;;
7843;SDS011;3967;48.702;9.326;2022-08-14T09:55:23;2.42;;;1.75;;
7843;SDS011;3967;48.702;9.326;2022-08-14T09:58:04;1.77;;;1.67;;
7843;SDS011;3967;48.702;9.326;2022-08-14T10:00:35;1.52;;;1.42;;
7843;SDS011;3967;48.702;9.326;2022-08-14T10:03:26;1.90;;;1.80;;
7843;SDS011;3967;48.702;9.326;2022-08-14T10:06:03;1.40;;;1.30;;
7843;SDS011;3967;48.702;9.326;2022-08-14T10:08:38;1.63;;;1.52;;
7843;SDS011;3967;48.702;9.326;2022-08-14T10:11:28;1.98;;;1.88;;
7843;SDS011;3967;48.702;9.326;2022-08-14T10:14:14;1.85;;;1.75;;
7843;SDS011;3967;48.702;9.326;2022-08-14T10:16:55;1.90;;;1.80;;
7843;SDS011;3967;48.702;9.326;2022-08-14T10:19:25;1.60;;;1.50;;
7843;SDS011;3967;48.702;9.326;2022-08-14T10:22:00;1.60;;;1.50;;
7843;SDS011;3967;48.702;9.326;2022-08-14T10:24:55;2.42;;;1.65;;
7843;SDS011;3967;48.702;9.326;2022-08-14T10:27:25;1.55;;;1.45;;
7843;SDS011;3967;48.702;9.326;2022-08-14T10:29:54;1.80;;;1.70;;
7843;SDS011;3967;48.702;9.326;2022-08-14T10:32:25;1.70;;;1.60;;
7843;SDS011;3967;48.702;9.326;2022-08-14T10:35:05;1.65;;;1.58;;
7843;SDS011;3967;48.702;9.326;2022-08-14T10:37:47;1.70;;;1.60;;
7843;SDS011;3967;48.702;9.326;2022-08-14T10:40:23;3.08;;;1.73;;
7843;SDS011;3967;48.702;9.326;2022-08-14T10:43:16;1.52;;;1.42;;
7843;SDS011;3967;48.702;9.326;2022-08-14T10:45:52;1.90;;;1.80;;
7843;SDS011;3967;48.702;9.326;2022-08-14T10:48:42;1.70;;;1.60;;
7843;SDS011;3967;48.702;9.326;2022-08-14T10:51:27;7.30;;;1.80;;
7843;SDS011;3967;48.702;9.326;2022-08-14T10:54:04;1.80;;;1.70;;
7843;SDS011;3967;48.702;9.326;2022-08-14T10:59:55;1.73;;;1.63;;
7843;SDS011;3967;48.702;9.326;2022-08-14T11:05:15;1.98;;;1.88;;
7843;SDS011;3967;48.702;9.326;2022-08-14T11:10:23;5.95;;;1.80;;
7843;SDS011;3967;48.702;9.326;2022-08-14T11:12:56;1.70;;;1.60;;
7843;SDS011;3967;48.702;9.326;2022-08-14T11:15:23;2.20;;;2.10;;
7843;SDS011;3967;48.702;9.326;2022-08-14T11:17:54;1.90;;;1.80;;
7843;SDS011;3967;48.702;9.326;2022-08-14T11:20:27;2.08;;;1.75;;
7843;SDS011;3967;48.702;9.326;2022-08-14T11:22:56;3.65;;;2.03;;
7843;SDS011;3967;48.702;9.326;2022-08-14T11:25:27;1.60;;;1.50;;
7843;SDS011;3967;48.702;9.326;2022-08-14T11:28:09;2.78;;;1.58;;
7843;SDS011;3967;48.702;9.326;2022-08-14T11:30:44;1.70;;;1.60;;
7843;SDS011;3967;48.702;9.326;2022-08-14T11:33:23;1.95;;;1.83;;
7843;SDS011;3967;48.702;9.326;2022-08-14T11:35:55;1.95;;;1.85;;
7843;SDS011;3967;48.702;9.326;2022-08-14T11:38:27;2.95;;;1.90;;
7843;SDS011;3967;48.702;9.326;2022-08-14T11:41:03;1.77;;;1.67;;
7843;SDS011;3967;48.702;9.326;2022-08-14T11:43:39;1.67;;;1.58;;
7843;SDS011;3967;48.702;9.326;2022-08-14T11:46:21;1.60;;;1.50;;
7843;SDS011;3967;48.702;9.326;2022-08-14T11:49:03;1.67;;;1.58;;
7843;SDS011;3967;48.702;9.326;2022-08-14T11:51:32;1.23;;;1.13;;
7843;SDS011;3967;48.702;9.326;2022-08-14T11:54:19;1.85;;;1.73;;
7843;SDS011;3967;48.702;9.326;2022-08-14T11:57:00;1.42;;;1.27;;
7843;SDS011;3967;48.702;9.326;2022-08-14T11:59:27;1.60;;;1.50;;
7843;SDS011;3967;48.702;9.326;2022-08-14T12:02:11;1.67;;;1.58;;
7843;SDS011;3967;48.702;9.326;2022-08-14T12:04:59;1.42;;;1.33;;
7843;SDS011;3967;48.702;9.326;2022-08-14T12:07:29;1.70;;;1.60;;
7843;SDS011;3967;48.702;9.326;2022-08-14T12:09:57;1.50;;;1.40;;
7843;SDS011;3967;48.702;9.326;2022-08-14T12:12:25;3.33;;;1.20;;
7843;SDS011;3967;48.702;9.326;2022-08-14T12:15:01;2.15;;;1.42;;
7843;SDS011;3967;48.702;9.326;2022-08-14T12:17:42;1.70;;;1.60;;
7843;SDS011;3967;48.702;9.326;2022-08-14T12:20:27;3.88;;;1.15;;
7843;SDS011;3967;48.702;9.326;2022-08-14T12:23:20;1.10;;;1.10;;
7843;SDS011;3967;48.702;9.326;2022-08-14T12:26:00;0.98;;;0.98;;
7843;SDS011;3967;48.702;9.326;2022-08-14T12:28:49;1.20;;;1.10;;
7843;SDS011;3967;48.702;9.326;2022-08-14T12:31:25;1.10;;;1.10;;
7843;SDS011;3967;48.702;9.326;2022-08-14T12:33:56;1.33;;;1.23;;
7843;SDS011;3967;48.702;9.326;2022-08-14T12:36:25;1.60;;;1.50;;
7843;SDS011;3967;48.702;9.326;2022-08-14T12:38:56;1.05;;;1.05;;
7843;SDS011;3967;48.702;9.326;2022-08-14T12:41:25;0.80;;;0.80;;
7843;SDS011;3967;48.702;9.326;2022-08-14T12:44:03;5.18;;;1.20;;
7843;SDS011;3967;48.702;9.326;2022-08-14T12:46:37;1.17;;;1.08;;
7843;SDS011;3967;48.702;9.326;2022-08-14T12:49:15;1.25;;;1.20;;
7843;SDS011;3967;48.702;9.326;2022-08-14T12:51:54;1.88;;;1.20;;
7843;SDS011;3967;48.702;9.326;2022-08-14T12:54:22;0.95;;;0.95;;
7843;SDS011;3967;48.702;9.326;2022-08-14T12:59:30;1.30;;;1.20;;
7843;SDS011;3967;48.702;9.326;2022-08-14T13:02:07;1.20;;;1.20;;
7843;SDS011;3967;48.702;9.326;2022-08-14T13:04:52;1.90;;;1.20;;
7843;SDS011;3967;48.702;9.326;2022-08-14T13:07:21;1.13;;;1.13;;
7843;SDS011;3967;48.702;9.326;2022-08-14T13:09:53;1.10;;;1.10;;
7843;SDS011;3967;48.702;9.326;2022-08-14T13:12:22;1.17;;;1.17;;
7843;SDS011;3967;48.702;9.326;2022-08-14T13:15:09;1.45;;;1.40;;
7843;SDS011;3967;48.702;9.326;2022-08-14T13:20:09;0.93;;;0.93;;
7843;SDS011;3967;48.702;9.326;2022-08-14T13:22:49;1.40;;;1.30;;
7843;SDS011;3967;48.702;9.326;2022-08-14T13:25:19;1.40;;;1.30;;
7843;SDS011;3967;48.702;9.326;2022-08-14T13:27:50;1.40;;;1.30;;
7843;SDS011;3967;48.702;9.326;2022-08-14T13:30:22;1.30;;;1.30;;
7843;SDS011;3967;48.702;9.326;2022-08-14T13:32:51;3.63;;;1.40;;
7843;SDS011;3967;48.702;9.326;2022-08-14T13:35:23;1.48;;;1.38;;
7843;SDS011;3967;48.702;9.326;2022-08-14T13:37:50;2.70;;;1.33;;
7843;SDS011;3967;48.702;9.326;2022-08-14T13:40:20;1.02;;;1.02;;
7843;SDS011;3967;48.702;9.326;2022-08-14T13:42:52;1.23;;;1.13;;
7843;SDS011;3967;48.702;9.326;2022-08-14T13:45:22;1.85;;;1.42;;
7843;SDS011;3967;48.702;9.326;2022-08-14T13:48:10;1.30;;;1.30;;
7843;SDS011;3967;48.702;9.326;2022-08-14T13:50:57;2.88;;;2.35;;
7843;SDS011;3967;48.702;9.326;2022-08-14T13:53:27;1.38;;;1.20;;
7843;SDS011;3967;48.702;9.326;2022-08-14T13:55:58;2.05;;;1.40;;
7843;SDS011;3967;48.702;9.326;2022-08-14T13:58:27;2.08;;;1.38;;
7843;SDS011;3967;48.702;9.326;2022-08-14T14:01:00;1.38;;;1.27;;
7843;SDS011;3967;48.702;9.326;2022-08-14T14:03:29;2.28;;;1.20;;
7843;SDS011;3967;48.702;9.326;2022-08-14T14:06:01;2.03;;;1.20;;
7843;SDS011;3967;48.702;9.326;2022-08-14T14:08:28;1.25;;;1.25;;
7843;SDS011;3967;48.702;9.326;2022-08-14T14:11:13;1.75;;;1.45;;
7843;SDS011;3967;48.702;9.326;2022-08-14T14:13:45;1.77;;;1.20;;
7843;SDS011;3967;48.702;9.326;2022-08-14T14:16:14;1.33;;;1.25;;
7843;SDS011;3967;48.702;9.326;2022-08-14T14:18:52;1.77;;;1.30;;
7843;SDS011;3967;48.702;9.326;2022-08-14T14:21:23;1.60;;;1.50;;
7843;SDS011;3967;48.702;9.326;2022-08-14T14:23:54;1.30;;;1.30;;
7843;SDS011;3967;48.702;9.326;2022-08-14T14:26:22;1.30;;;1.30;;
7843;SDS011;3967;48.702;9.326;2022-08-14T14:28:50;1.88;;;1.50;;
7843;SDS011;3967;48.702;9.326;2022-08-14T14:31:25;2.50;;;1.17;;
7843;SDS011;3967;48.702;9.326;2022-08-14T14:33:58;1.52;;;1.42;;
7843;SDS011;3967;48.702;9.326;2022-08-14T14:36:45;1.40;;;1.30;;
7843;SDS011;3967;48.702;9.326;2022-08-14T14:39:18;1.52;;;1.40;;
7843;SDS011;3967;48.702;9.326;2022-08-14T14:41:52;1.50;;;1.40;;
7843;SDS011;3967;48.702;9.326;2022-08-14T14:44:36;3.13;;;2.53;;
7843;SDS011;3967;48.702;9.326;2022-08-14T14:47:11;1.23;;;1.17;;
7843;SDS011;3967;48.702;9.326;2022-08-14T14:49:42;1.40;;;1.20;;
7843;SDS011;3967;48.702;9.326;2022-08-14T14:52:20;1.15;;;1.15;;
7843;SDS011;3967;48.702;9.326;2022-08-14T14:54:56;1.27;;;1.17;;
7843;SDS011;3967;48.702;9.326;2022-08-14T14:57:25;1.10;;;1.10;;
7843;SDS011;3967;48.702;9.326;2022-08-14T15:00:03;3.03;;;1.33;;
7843;SDS011;3967;48.702;9.326;2022-08-14T15:02:39;5.03;;;1.50;;
7843;SDS011;3967;48.702;9.326;2022-08-14T15:05:10;1.38;;;1.27;;
7843;SDS011;3967;48.702;9.326;2022-08-14T15:07:39;1.30;;;1.20;;
7843;SDS011;3967;48.702;9.326;2022-08-14T15:10:08;1.35;;;1.20;;
7843;SDS011;3967;48.702;9.326;2022-08-14T15:12:56;1.30;;;1.20;;
7843;SDS011;3967;48.702;9.326;2022-08-14T15:15:25;1.25;;;1.10;;
7843;SDS011;3967;48.702;9.326;2022-08-14T15:17:52;1.20;;;1.10;;
7843;SDS011;3967;48.702;9.326;2022-08-14T15:20:20;2.33;;;1.30;;
7843;SDS011;3967;48.702;9.326;2022-08-14T15:22:56;1.35;;;1.25;;
7843;SDS011;3967;48.702;9.326;2022-08-14T15:25:33;1.25;;;1.15;;
7843;SDS011;3967;48.702;9.326;2022-08-14T15:28:01;1.10;;;1.10;;
7843;SDS011;3967;48.702;9.326;2022-08-14T15:30:30;1.70;;;1.48;;
7843;SDS011;3967;48.702;9.326;2022-08-14T15:32:57;1.48;;;1.38;;
7843;SDS011;3967;48.702;9.326;2022-08-14T15:35:25;1.92;;;1.23;;
7843;SDS011;3967;48.702;9.326;2022-08-14T15:37:59;1.27;;;1.20;;
7843;SDS011;3967;48.702;9.326;2022-08-14T15:40:39;2.03;;;1.35;;
7843;SDS011;3967;48.702;9.326;2022-08-14T15:43:07;1.20;;;1.20;;
7843;SDS011;3967;48.702;9.326;2022-08-14T15:45:39;1.60;;;1.50;;
7843;SDS011;3967;48.702;9.326;2022-08-14T15:48:06;1.27;;;1.27;;
7843;SDS011;3967;48.702;9.326;2022-08-14T15:50:47;1.25;;;1.20;;
7843;SDS011;3967;48.702;9.326;2022-08-14T15:53:16;2.17;;;1.40;;
7843;SDS011;3967;48.702;9.326;2022-08-14T15:55:42;3.63;;;1.40;;
7843;SDS011;3967;48.702;9.326;2022-08-14T15:58:09;1.33;;;1.33;;
7843;SDS011;3967;48.702;9.326;2022-08-14T16:00:39;1.58;;;1.15;;
7843;SDS011;3967;48.702;9.326;2022-08-14T16:03:25;2.40;;;1.30;;
7843;SDS011;3967;48.702;9.326;2022-08-14T16:06:07;1.30;;;1.20;;
7843;SDS011;3967;48.702;9.326;2022-08-14T16:08:49;1.55;;;1.45;;
7843;SDS011;3967;48.702;9.326;2022-08-14T16:11:24;1.00;;;1.00;;
7843;SDS011;3967;48.702;9.326;2022-08-14T16:13:54;1.70;;;1.33;;
7843;SDS011;3967;48.702;9.326;2022-08-14T16:16:25;1.85;;;1.15;;
7843;SDS011;3967;48.702;9.326;2022-08-14T16:19:15;1.02;;;1.02;;
7843;SDS011;3967;48.702;9.326;2022-08-14T16:21:44;1.60;;;1.50;;
7843;SDS011;3967;48.702;9.326;2022-08-14T16:24:32;3.35;;;1.55;;
7843;SDS011;3967;48.702;9.326;2022-08-14T16:27:21;1.60;;;1.50;;
7843;SDS011;3967;48.702;9.326;2022-08-14T16:30:05;1.73;;;1.30;;
7843;SDS011;3967;48.702;9.326;2022-08-14T16:32:50;1.98;;;1.30;;
7843;SDS011;3967;48.702;9.326;2022-08-14T16:35:21;1.20;;;1.20;;